createdAt,value
2019-01-17T00:00:36.727Z,18.5
2019-01-17T00:01:36.698Z,18.5
2019-01-17T00:02:36.768Z,18.5
2019-01-17T00:03:36.693Z,18.5
2019-01-17T00:04:36.701Z,18.5
2019-01-17T00:05:36.852Z,18.5
2019-01-17T00:06:36.968Z,18.5
2019-01-17T00:07:36.782Z,18.5
2019-01-17T00:08:36.870Z,18.5
2019-01-17T00:09:36.619Z,18.5
2019-01-17T00:10:36.720Z,18.5
2019-01-17T00:11:36.689Z,18.5
2019-01-17T00:12:36.655Z,18.5
2019-01-17T00:13:36.653Z,18.5
2019-01-17T00:14:36.929Z,18.5
2019-01-17T00:15:36.747Z,18.5
2019-01-17T00:16:36.859Z,18.5
2019-01-17T00:17:36.603Z,18.5
2019-01-17T00:18:36.650Z,18.5
2019-01-17T00:19:36.568Z,18.5
2019-01-17T00:20:38.670Z,18.5
2019-01-17T00:21:36.827Z,18.5
2019-01-17T00:22:36.718Z,18.5
2019-01-17T00:23:37.736Z,18.25
2019-01-17T00:24:37.009Z,18.25
2019-01-17T00:25:36.984Z,18.25
2019-01-17T00:26:37.657Z,18.25
2019-01-17T00:27:37.020Z,18.25
2019-01-17T00:28:36.990Z,18.25
2019-01-17T00:29:36.661Z,18.25
2019-01-17T00:30:36.805Z,18.25
2019-01-17T00:31:36.991Z,18.25
2019-01-17T00:32:36.737Z,18.25
2019-01-17T00:33:36.969Z,18.25
2019-01-17T00:34:37.179Z,18.25
2019-01-17T00:35:36.714Z,18.25
2019-01-17T00:36:36.911Z,18.25
2019-01-17T00:37:36.910Z,18.25
2019-01-17T00:38:36.738Z,18.25
2019-01-17T00:39:36.794Z,18.25
2019-01-17T00:40:37.160Z,18.25
2019-01-17T00:41:36.966Z,18.25
2019-01-17T00:42:36.723Z,18.25
2019-01-17T00:43:37.503Z,18.25
2019-01-17T00:44:36.933Z,18.25
2019-01-17T00:45:36.945Z,18.25
2019-01-17T00:46:36.839Z,18.25
2019-01-17T00:47:36.722Z,18.25
2019-01-17T00:48:36.681Z,18.25
2019-01-17T00:49:38.449Z,18.25
2019-01-17T00:50:36.868Z,18.25
2019-01-17T00:51:36.816Z,18.25
2019-01-17T00:52:37.013Z,18.25
2019-01-17T00:53:36.477Z,18.25
2019-01-17T00:54:36.588Z,18.25
2019-01-17T00:55:37.429Z,18.25
2019-01-17T00:56:36.637Z,18.25
2019-01-17T00:57:37.056Z,18.25
2019-01-17T00:58:36.841Z,18.25
2019-01-17T00:59:37.748Z,18.25
2019-01-17T01:00:36.844Z,18.25
2019-01-17T01:01:36.830Z,18.25
2019-01-17T01:02:36.677Z,18.25
2019-01-17T01:03:37.380Z,18.25
2019-01-17T01:04:36.776Z,18.25
2019-01-17T01:05:37.060Z,18.25
2019-01-17T01:06:37.196Z,18.25
2019-01-17T01:07:36.560Z,18.25
2019-01-17T01:08:36.693Z,18.25
2019-01-17T01:09:38.365Z,18.25
2019-01-17T01:10:36.555Z,18.25
2019-01-17T01:11:36.668Z,18.25
2019-01-17T01:12:36.696Z,18.25
2019-01-17T01:13:36.619Z,18.25
2019-01-17T01:14:36.732Z,18.25
2019-01-17T01:15:37.026Z,18.25
2019-01-17T01:16:36.557Z,18.25
2019-01-17T01:17:36.678Z,18.25
2019-01-17T01:18:37.412Z,18.25
2019-01-17T01:19:36.991Z,18.25
2019-01-17T01:20:37.270Z,18.25
2019-01-17T01:21:36.438Z,18.25
2019-01-17T01:22:37.144Z,18.25
2019-01-17T01:23:36.994Z,18.25
2019-01-17T01:24:36.710Z,18.25
2019-01-17T01:25:36.987Z,18.25
2019-01-17T01:26:36.707Z,18.25
2019-01-17T01:27:38.411Z,18.25
2019-01-17T01:28:37.202Z,18.25
2019-01-17T01:29:37.053Z,18.25
2019-01-17T01:30:36.417Z,18.25
2019-01-17T01:31:36.873Z,18.25
2019-01-17T01:32:36.751Z,18.25
2019-01-17T01:33:36.920Z,18.25
2019-01-17T01:34:36.649Z,18.25
2019-01-17T01:35:36.879Z,18.25
2019-01-17T01:36:36.456Z,18.25
2019-01-17T01:37:36.776Z,18.25
2019-01-17T01:38:36.664Z,18.25
2019-01-17T01:39:36.811Z,18.25
2019-01-17T01:40:36.665Z,18.25
2019-01-17T01:41:36.773Z,18.25
2019-01-17T01:42:36.734Z,18.25
2019-01-17T01:43:36.672Z,18.25
2019-01-17T01:44:36.649Z,18.25
2019-01-17T01:45:36.510Z,18.25
2019-01-17T01:46:36.762Z,18.25
2019-01-17T01:47:36.815Z,18.25
2019-01-17T01:48:36.811Z,18.25
2019-01-17T01:49:36.478Z,18.25
2019-01-17T01:50:36.750Z,18.25
2019-01-17T01:51:36.644Z,18.25
2019-01-17T01:52:36.706Z,18.25
2019-01-17T01:53:36.473Z,18.25
2019-01-17T01:54:36.676Z,18.25
2019-01-17T01:55:36.819Z,18.25
2019-01-17T01:56:36.742Z,18.25
2019-01-17T01:57:36.696Z,18.25
2019-01-17T01:58:36.731Z,18.25
2019-01-17T01:59:37.291Z,18.25
2019-01-17T02:00:37.350Z,18.25
2019-01-17T02:01:36.827Z,18.25
2019-01-17T02:02:36.750Z,18
2019-01-17T02:03:37.007Z,18.25
2019-01-17T02:04:36.659Z,18
2019-01-17T02:05:36.546Z,18.25
2019-01-17T02:06:37.191Z,18
2019-01-17T02:07:36.913Z,18.25
2019-01-17T02:08:36.944Z,18
2019-01-17T02:09:36.939Z,18
2019-01-17T02:10:37.020Z,18
2019-01-17T02:11:36.977Z,18
2019-01-17T02:12:36.713Z,18
2019-01-17T02:13:36.806Z,18
2019-01-17T02:14:37.275Z,18
2019-01-17T02:15:36.845Z,18
2019-01-17T02:16:36.838Z,18
2019-01-17T02:17:36.874Z,18
2019-01-17T02:18:36.810Z,18
2019-01-17T02:19:36.724Z,18
2019-01-17T02:20:36.671Z,18
2019-01-17T02:21:36.786Z,18
2019-01-17T02:22:36.834Z,18
2019-01-17T02:23:36.827Z,18
2019-01-17T02:24:36.506Z,18
2019-01-17T02:25:36.655Z,18
2019-01-17T02:26:37.519Z,18
2019-01-17T02:27:37.127Z,18
2019-01-17T02:28:37.016Z,18
2019-01-17T02:29:37.377Z,18
2019-01-17T02:30:36.847Z,18
2019-01-17T02:31:36.932Z,18
2019-01-17T02:32:36.790Z,18
2019-01-17T02:33:36.726Z,18
2019-01-17T02:34:36.964Z,18
2019-01-17T02:35:36.916Z,18
2019-01-17T02:36:36.482Z,18
2019-01-17T02:37:36.688Z,18
2019-01-17T02:38:37.025Z,18
2019-01-17T02:39:37.010Z,18
2019-01-17T02:40:36.786Z,18
2019-01-17T02:41:36.924Z,18
2019-01-17T02:42:36.868Z,18
2019-01-17T02:43:36.713Z,18
2019-01-17T02:44:37.156Z,18
2019-01-17T02:45:36.878Z,18
2019-01-17T02:46:37.153Z,18
2019-01-17T02:47:38.446Z,18
2019-01-17T02:48:36.586Z,18
2019-01-17T02:49:37.069Z,18
2019-01-17T02:50:36.646Z,18
2019-01-17T02:51:38.604Z,18
2019-01-17T02:52:37.813Z,18
2019-01-17T02:53:36.642Z,18
2019-01-17T02:54:36.895Z,18
2019-01-17T02:55:36.713Z,18
2019-01-17T02:56:36.638Z,18
2019-01-17T02:57:37.007Z,18
2019-01-17T02:58:36.846Z,18
2019-01-17T02:59:36.780Z,18
2019-01-17T03:00:37.125Z,18
2019-01-17T03:01:37.025Z,18
2019-01-17T03:02:37.002Z,18
2019-01-17T03:03:36.828Z,18
2019-01-17T03:04:36.884Z,18
2019-01-17T03:05:36.946Z,18
2019-01-17T03:06:36.741Z,18
2019-01-17T03:07:36.994Z,18
2019-01-17T03:08:36.555Z,18
2019-01-17T03:09:38.641Z,18
2019-01-17T03:10:36.565Z,18
2019-01-17T03:11:38.645Z,18
2019-01-17T03:12:36.674Z,18
2019-01-17T03:13:38.421Z,18
2019-01-17T03:14:36.910Z,18
2019-01-17T03:15:38.369Z,18
2019-01-17T03:16:37.062Z,18
2019-01-17T03:17:36.669Z,18
2019-01-17T03:18:36.778Z,18
2019-01-17T03:19:36.581Z,18
2019-01-17T03:20:37.177Z,18
2019-01-17T03:21:37.279Z,18
2019-01-17T03:22:36.605Z,18
2019-01-17T03:23:36.763Z,18
2019-01-17T03:24:43.409Z,18
2019-01-17T03:25:36.813Z,18
2019-01-17T03:26:36.702Z,18
2019-01-17T03:27:36.455Z,18
2019-01-17T03:28:36.709Z,18
2019-01-17T03:29:36.670Z,18
2019-01-17T03:30:36.639Z,18
2019-01-17T03:31:36.843Z,18
2019-01-17T03:32:36.483Z,18
2019-01-17T03:33:36.648Z,18
2019-01-17T03:34:36.704Z,18
2019-01-17T03:35:36.731Z,18
2019-01-17T03:36:36.461Z,18
2019-01-17T03:37:36.625Z,18
2019-01-17T03:38:36.633Z,18
2019-01-17T03:39:36.655Z,18
2019-01-17T03:40:36.588Z,18
2019-01-17T03:41:36.931Z,18
2019-01-17T03:42:37.124Z,18
2019-01-17T03:43:36.691Z,18
2019-01-17T03:44:36.438Z,18
2019-01-17T03:45:36.898Z,18
2019-01-17T03:46:37.636Z,18
2019-01-17T03:47:36.753Z,18
2019-01-17T03:48:36.463Z,18
2019-01-17T03:49:36.947Z,18
2019-01-17T03:50:36.697Z,18
2019-01-17T03:51:36.760Z,18
2019-01-17T03:52:36.634Z,18
2019-01-17T03:53:36.648Z,18
2019-01-17T03:54:36.842Z,18
2019-01-17T03:55:36.423Z,18
2019-01-17T03:56:37.659Z,18
2019-01-17T03:57:37.000Z,18
2019-01-17T03:58:36.945Z,18
2019-01-17T03:59:37.005Z,18
2019-01-17T04:00:36.755Z,18
2019-01-17T04:01:38.067Z,18
2019-01-17T04:02:36.697Z,17.75
2019-01-17T04:03:37.057Z,18
2019-01-17T04:04:36.837Z,17.75
2019-01-17T04:05:37.123Z,17.75
2019-01-17T04:06:37.037Z,17.75
2019-01-17T04:07:36.798Z,17.75
2019-01-17T04:08:36.711Z,17.75
2019-01-17T04:09:36.439Z,18
2019-01-17T04:10:36.640Z,17.75
2019-01-17T04:11:36.963Z,17.75
2019-01-17T04:12:36.842Z,17.75
2019-01-17T04:13:36.801Z,17.75
2019-01-17T04:14:36.884Z,17.75
2019-01-17T04:15:36.559Z,17.75
2019-01-17T04:16:36.919Z,17.75
2019-01-17T04:17:37.035Z,17.75
2019-01-17T04:18:36.582Z,17.75
2019-01-17T04:19:36.887Z,17.75
2019-01-17T04:20:36.740Z,17.75
2019-01-17T04:21:37.242Z,17.75
2019-01-17T04:22:37.103Z,17.75
2019-01-17T04:23:37.452Z,17.75
2019-01-17T04:24:36.874Z,17.75
2019-01-17T04:25:36.784Z,17.75
2019-01-17T04:26:36.479Z,17.75
2019-01-17T04:27:37.038Z,17.75
2019-01-17T04:28:37.626Z,17.75
2019-01-17T04:29:36.842Z,17.75
2019-01-17T04:30:36.868Z,17.75
2019-01-17T04:31:36.543Z,17.75
2019-01-17T04:32:36.719Z,17.75
2019-01-17T04:33:36.873Z,17.75
2019-01-17T04:34:36.953Z,17.75
2019-01-17T04:35:36.765Z,17.75
2019-01-17T04:36:36.904Z,17.75
2019-01-17T04:37:36.613Z,17.75
2019-01-17T04:38:36.951Z,17.75
2019-01-17T04:39:36.678Z,17.75
2019-01-17T04:40:36.803Z,17.75
2019-01-17T04:41:36.888Z,17.75
2019-01-17T04:42:37.302Z,17.75
2019-01-17T04:43:36.921Z,17.75
2019-01-17T04:44:36.622Z,17.75
2019-01-17T04:45:36.866Z,17.75
2019-01-17T04:46:37.042Z,17.75
2019-01-17T04:47:36.495Z,17.75
2019-01-17T04:48:37.024Z,17.75
2019-01-17T04:49:36.441Z,17.75
2019-01-17T04:50:36.723Z,17.75
2019-01-17T04:51:36.849Z,17.75
2019-01-17T04:52:38.680Z,17.75
2019-01-17T04:53:36.693Z,17.75
2019-01-17T04:54:38.671Z,17.75
2019-01-17T04:55:36.508Z,17.75
2019-01-17T04:56:36.826Z,17.75
2019-01-17T04:57:37.016Z,18
2019-01-17T04:58:36.810Z,18
2019-01-17T04:59:37.529Z,18
2019-01-17T05:01:36.600Z,18
2019-01-17T05:02:36.758Z,18
2019-01-17T05:03:36.399Z,18
2019-01-17T05:04:36.566Z,18
2019-01-17T05:05:37.021Z,18
2019-01-17T05:06:36.765Z,18
2019-01-17T05:07:36.836Z,18
2019-01-17T05:08:36.635Z,18
2019-01-17T05:09:36.693Z,18
2019-01-17T05:10:36.573Z,18
2019-01-17T05:11:36.575Z,18
2019-01-17T05:12:36.756Z,18
2019-01-17T05:13:36.762Z,18
2019-01-17T05:14:36.677Z,18
2019-01-17T05:15:36.418Z,18
2019-01-17T05:16:37.025Z,18
2019-01-17T05:17:36.946Z,18
2019-01-17T05:18:36.996Z,18
2019-01-17T05:19:36.711Z,18.25
2019-01-17T05:20:36.740Z,18.25
2019-01-17T05:21:36.560Z,18.25
2019-01-17T05:22:36.802Z,18.25
2019-01-17T05:23:36.707Z,18.25
2019-01-17T05:24:36.923Z,18.25
2019-01-17T05:25:37.833Z,18.25
2019-01-17T05:26:36.726Z,18.25
2019-01-17T05:27:36.603Z,18.25
2019-01-17T05:28:36.645Z,18.25
2019-01-17T05:29:36.735Z,18.25
2019-01-17T05:30:37.655Z,18.25
2019-01-17T05:31:37.892Z,18.25
2019-01-17T05:32:36.986Z,18.25
2019-01-17T05:33:36.779Z,18.25
2019-01-17T05:34:40.065Z,18.25
2019-01-17T05:35:36.491Z,18.25
2019-01-17T05:36:37.140Z,18.25
2019-01-17T05:37:36.925Z,18.25
2019-01-17T05:38:36.785Z,18.25
2019-01-17T05:39:36.389Z,18.5
2019-01-17T05:40:36.673Z,18.5
2019-01-17T05:42:38.419Z,18.5
2019-01-17T05:43:36.678Z,18.5
2019-01-17T05:44:36.760Z,18.5
2019-01-17T05:45:36.854Z,18.5
2019-01-17T05:46:36.629Z,18.5
2019-01-17T05:47:36.604Z,18.5
2019-01-17T05:48:37.066Z,18.5
2019-01-17T05:49:36.366Z,18.5
2019-01-17T05:50:36.876Z,18.5
2019-01-17T05:51:36.901Z,18.5
2019-01-17T05:52:36.833Z,18.5
2019-01-17T05:53:36.809Z,18.25
2019-01-17T05:54:36.718Z,18.25
2019-01-17T05:55:36.611Z,18.25
2019-01-17T05:56:36.651Z,18.25
2019-01-17T05:57:36.964Z,18.25
2019-01-17T05:58:36.399Z,18
2019-01-17T05:59:37.025Z,18
2019-01-17T06:00:36.881Z,18
2019-01-17T06:01:36.524Z,18
2019-01-17T06:02:36.812Z,18
2019-01-17T06:03:36.712Z,17.75
2019-01-17T06:04:37.016Z,17.75
2019-01-17T06:05:37.165Z,17.75
2019-01-17T06:06:36.930Z,17.75
2019-01-17T06:07:36.812Z,17.75
2019-01-17T06:08:36.983Z,17.75
2019-01-17T06:09:36.401Z,17.5
2019-01-17T06:10:36.604Z,17.5
2019-01-17T06:11:36.714Z,17.5
2019-01-17T06:12:36.647Z,17.5
2019-01-17T06:13:36.620Z,17.5
2019-01-17T06:14:36.838Z,17.5
2019-01-17T06:15:37.286Z,17.5
2019-01-17T06:16:37.229Z,17.5
2019-01-17T06:17:36.268Z,17.5
2019-01-17T06:18:36.705Z,17.5
2019-01-17T06:19:36.577Z,17.25
2019-01-17T06:20:36.683Z,17.25
2019-01-17T06:21:37.015Z,17.25
2019-01-17T06:22:36.870Z,17.25
2019-01-17T06:23:36.453Z,17.25
2019-01-17T06:24:36.734Z,17.25
2019-01-17T06:25:38.487Z,17.25
2019-01-17T06:26:37.012Z,17.25
2019-01-17T06:27:38.307Z,17.25
2019-01-17T06:28:36.505Z,17.25
2019-01-17T06:29:36.359Z,17.25
2019-01-17T06:30:37.457Z,17.5
2019-01-17T06:31:37.275Z,17.5
2019-01-17T06:32:36.749Z,17.5
2019-01-17T06:33:37.643Z,17.5
2019-01-17T06:34:36.687Z,17.5
2019-01-17T06:35:36.634Z,17.5
2019-01-17T06:36:37.071Z,17.5
2019-01-17T06:37:36.731Z,17.75
2019-01-17T06:38:36.678Z,17.75
2019-01-17T06:39:36.740Z,17.75
2019-01-17T06:40:36.987Z,17.75
2019-01-17T06:41:36.803Z,17.75
2019-01-17T06:42:36.595Z,17.75
2019-01-17T06:43:37.334Z,17.75
2019-01-17T06:44:36.468Z,17.75
2019-01-17T06:45:36.606Z,17.75
2019-01-17T06:46:36.752Z,18
2019-01-17T06:47:36.731Z,18
2019-01-17T06:48:37.053Z,18
2019-01-17T06:49:36.426Z,18
2019-01-17T06:50:36.685Z,18
2019-01-17T06:51:37.346Z,18
2019-01-17T06:52:36.828Z,18
2019-01-17T06:53:37.170Z,18
2019-01-17T06:54:36.821Z,18
2019-01-17T06:55:36.643Z,18
2019-01-17T06:56:36.924Z,18.25
2019-01-17T06:57:36.357Z,18.25
2019-01-17T06:58:36.436Z,18.25
2019-01-17T06:59:36.681Z,18.25
2019-01-17T07:00:36.626Z,18.25
2019-01-17T07:01:36.446Z,18.25
2019-01-17T07:02:36.847Z,18.25
2019-01-17T07:03:36.445Z,18.25
2019-01-17T07:04:36.822Z,18.25
2019-01-17T07:05:36.778Z,18.25
2019-01-17T07:06:36.763Z,18.25
2019-01-17T07:07:36.848Z,18.25
2019-01-17T07:08:36.667Z,18.25
2019-01-17T07:09:36.558Z,18.25
2019-01-17T07:10:36.824Z,18.5
2019-01-17T07:11:36.662Z,18.5
2019-01-17T07:12:38.336Z,18.5
2019-01-17T07:13:36.566Z,18.5
2019-01-17T07:14:36.336Z,18.5
2019-01-17T07:15:36.772Z,18.5
2019-01-17T07:16:38.417Z,18.5
2019-01-17T07:17:38.295Z,18.5
2019-01-17T07:18:36.892Z,18.5
2019-01-17T07:19:38.465Z,18.5
2019-01-17T07:20:36.454Z,18.5
2019-01-17T07:21:38.046Z,18.5
2019-01-17T07:22:37.236Z,18.5
2019-01-17T07:23:36.498Z,18.5
2019-01-17T07:24:37.432Z,18.5
2019-01-17T07:25:41.465Z,18.5
2019-01-17T07:26:36.467Z,18.5
2019-01-17T07:27:37.364Z,18.5
2019-01-17T07:28:36.849Z,18.5
2019-01-17T07:29:36.379Z,18.5
2019-01-17T07:30:36.788Z,18.5
2019-01-17T07:31:36.698Z,18.5
2019-01-17T07:32:36.815Z,18.5
2019-01-17T07:33:36.904Z,18.5
2019-01-17T07:34:36.800Z,18.5
2019-01-17T07:35:37.213Z,18.5
2019-01-17T07:36:36.940Z,18.5
2019-01-17T07:37:36.335Z,18.5
2019-01-17T07:38:36.715Z,18.75
2019-01-17T07:39:36.880Z,18.75
2019-01-17T07:40:36.504Z,18.75
2019-01-17T07:41:36.758Z,18.75
2019-01-17T07:42:36.658Z,18.75
2019-01-17T07:43:36.667Z,18.75
2019-01-17T07:44:37.169Z,18.75
2019-01-17T07:45:37.153Z,18.75
2019-01-17T07:46:36.722Z,18.75
2019-01-17T07:47:36.575Z,18.75
2019-01-17T07:48:36.855Z,18.75
2019-01-17T07:49:36.553Z,18.75
2019-01-17T07:50:36.845Z,18.75
2019-01-17T07:51:36.452Z,18.75
2019-01-17T07:52:36.768Z,18.75
2019-01-17T07:53:37.102Z,18.75
2019-01-17T07:54:36.770Z,18.75
2019-01-17T07:55:36.554Z,18.75
2019-01-17T07:56:36.891Z,18.75
2019-01-17T07:57:36.819Z,18.75
2019-01-17T07:58:36.566Z,18.75
2019-01-17T07:59:36.901Z,18.75
2019-01-17T08:00:36.348Z,18.75
2019-01-17T08:01:36.672Z,18.75
2019-01-17T08:02:38.476Z,18.75
2019-01-17T08:03:36.437Z,18.75
2019-01-17T08:04:36.862Z,18.75
2019-01-17T08:05:36.828Z,18.75
2019-01-17T08:06:37.022Z,18.75
2019-01-17T08:07:36.475Z,19
2019-01-17T08:08:36.473Z,18.75
2019-01-17T08:09:36.425Z,19
2019-01-17T08:10:36.601Z,19
2019-01-17T08:11:36.327Z,19
2019-01-17T08:12:36.904Z,19
2019-01-17T08:13:36.745Z,19
2019-01-17T08:14:36.511Z,19
2019-01-17T08:15:36.951Z,19
2019-01-17T08:16:36.752Z,19
2019-01-17T08:17:36.726Z,19
2019-01-17T08:18:36.828Z,19
2019-01-17T08:19:36.944Z,19
2019-01-17T08:20:36.643Z,19
2019-01-17T08:21:36.541Z,19
2019-01-17T08:22:36.943Z,19
2019-01-17T08:23:38.330Z,19
2019-01-17T08:24:36.980Z,19
2019-01-17T08:25:36.698Z,19
2019-01-17T08:26:36.681Z,19
2019-01-17T08:27:36.698Z,19
2019-01-17T08:28:36.468Z,19
2019-01-17T08:29:36.825Z,19
2019-01-17T08:30:36.830Z,19
2019-01-17T08:31:36.443Z,19
2019-01-17T08:32:36.502Z,19
2019-01-17T08:33:36.802Z,19
2019-01-17T08:34:36.430Z,19
2019-01-17T08:35:37.161Z,19
2019-01-17T08:36:36.816Z,19
2019-01-17T08:37:37.459Z,19
2019-01-17T08:38:36.811Z,19
2019-01-17T08:39:36.759Z,19
2019-01-17T08:40:36.390Z,19
2019-01-17T08:41:36.771Z,19
2019-01-17T08:42:37.214Z,19
2019-01-17T08:43:36.965Z,19
2019-01-17T08:44:37.316Z,19
2019-01-17T08:45:37.360Z,19
2019-01-17T08:46:37.163Z,19
2019-01-17T08:47:37.080Z,19
2019-01-17T08:48:36.448Z,19
2019-01-17T08:49:36.799Z,19
2019-01-17T08:50:36.906Z,19
2019-01-17T08:52:37.002Z,19.25
2019-01-17T08:53:36.917Z,19
2019-01-17T08:54:36.749Z,19.25
2019-01-17T08:55:37.099Z,19
2019-01-17T08:56:36.803Z,19
2019-01-17T08:57:36.686Z,19.25
2019-01-17T08:58:38.410Z,19.25
2019-01-17T08:59:36.815Z,19
2019-01-17T09:00:36.363Z,19.25
2019-01-17T09:01:37.078Z,19.25
2019-01-17T09:02:37.048Z,19.25
2019-01-17T09:03:36.488Z,19.25
2019-01-17T09:04:36.465Z,19.25
2019-01-17T09:05:36.675Z,19.25
2019-01-17T09:06:36.850Z,19.25
2019-01-17T09:07:36.450Z,19.25
2019-01-17T09:08:36.404Z,19.25
2019-01-17T09:09:36.820Z,19.25
2019-01-17T09:10:36.785Z,19.25
2019-01-17T09:11:36.575Z,19.25
2019-01-17T09:12:36.537Z,19.25
2019-01-17T09:13:36.923Z,19.25
2019-01-17T09:14:37.013Z,19.25
2019-01-17T09:15:36.408Z,19.25
2019-01-17T09:16:36.508Z,19.25
2019-01-17T09:17:36.781Z,19.25
2019-01-17T09:18:36.540Z,19.25
2019-01-17T09:19:36.604Z,19.25
2019-01-17T09:20:36.528Z,19.25
2019-01-17T09:21:36.447Z,19.25
2019-01-17T09:22:37.174Z,19.25
2019-01-17T09:23:36.519Z,19.25
2019-01-17T09:24:36.534Z,19.25
2019-01-17T09:25:36.873Z,19.25
2019-01-17T09:26:36.826Z,19.25
2019-01-17T09:27:36.867Z,19.25
2019-01-17T09:28:38.542Z,19.25
2019-01-17T09:29:36.817Z,19.25
2019-01-17T09:30:36.773Z,19.25
2019-01-17T09:31:36.403Z,19.5
2019-01-17T09:32:38.368Z,19.5
2019-01-17T09:33:36.727Z,19.5
2019-01-17T09:34:36.758Z,19.5
2019-01-17T09:35:36.826Z,19.5
2019-01-17T09:36:37.086Z,19.5
2019-01-17T09:37:36.818Z,19.5
2019-01-17T09:38:36.865Z,19.5
2019-01-17T09:39:37.818Z,19.5
2019-01-17T09:40:36.767Z,19.5
2019-01-17T09:41:36.554Z,19.5
2019-01-17T09:42:37.530Z,19.5
2019-01-17T09:43:36.884Z,19.5
2019-01-17T09:44:37.103Z,19.5
2019-01-17T09:45:37.700Z,19.5
2019-01-17T09:46:36.366Z,19.5
2019-01-17T09:47:37.072Z,19.5
2019-01-17T09:48:36.311Z,19.5
2019-01-17T09:49:36.810Z,19.5
2019-01-17T09:50:37.014Z,19.5
2019-01-17T09:51:36.882Z,19.5
2019-01-17T09:52:36.995Z,19.5
2019-01-17T09:53:36.783Z,19.5
2019-01-17T09:54:36.465Z,19.5
2019-01-17T09:55:36.870Z,19.5
2019-01-17T09:56:36.307Z,19.5
2019-01-17T09:57:36.779Z,19.5
2019-01-17T09:58:36.984Z,19.75
2019-01-17T09:59:36.358Z,19.5
2019-01-17T10:00:36.907Z,19.75
2019-01-17T10:01:36.603Z,19.75
2019-01-17T10:02:36.743Z,19.75
2019-01-17T10:03:36.753Z,19.75
2019-01-17T10:04:36.691Z,19.75
2019-01-17T10:05:36.530Z,19.75
2019-01-17T10:06:38.450Z,19.75
2019-01-17T10:07:36.336Z,19.75
2019-01-17T10:08:36.698Z,19.75
2019-01-17T10:09:36.760Z,19.75
2019-01-17T10:10:36.719Z,19.75
2019-01-17T10:11:36.796Z,19.75
2019-01-17T10:12:36.397Z,19.75
2019-01-17T10:13:36.423Z,19.75
2019-01-17T10:14:36.722Z,19.75
2019-01-17T10:15:36.448Z,19.75
2019-01-17T10:16:37.109Z,19.75
2019-01-17T10:17:36.766Z,19.75
2019-01-17T10:18:36.704Z,19.75
2019-01-17T10:19:36.663Z,19.75
2019-01-17T10:20:36.731Z,19.75
2019-01-17T10:21:36.469Z,19.75
2019-01-17T10:22:36.554Z,19.75
2019-01-17T10:23:36.592Z,19.75
2019-01-17T10:24:36.765Z,19.75
2019-01-17T10:25:36.855Z,19.75
2019-01-17T10:26:36.755Z,19.75
2019-01-17T10:27:36.808Z,19.75
2019-01-17T10:28:36.970Z,19.75
2019-01-17T10:29:36.785Z,19.75
2019-01-17T10:30:36.875Z,19.75
2019-01-17T10:31:37.012Z,19.75
2019-01-17T10:32:36.672Z,19.75
2019-01-17T10:33:38.386Z,19.75
2019-01-17T10:34:36.881Z,19.75
2019-01-17T10:35:36.488Z,19.75
2019-01-17T10:36:36.436Z,19.75
2019-01-17T10:37:36.541Z,19.75
2019-01-17T10:38:36.991Z,19.75
2019-01-17T10:39:36.855Z,19.75
2019-01-17T10:40:36.489Z,19.75
2019-01-17T10:41:36.860Z,19.75
2019-01-17T10:42:37.022Z,19.75
2019-01-17T10:43:37.823Z,19.75
2019-01-17T10:44:38.346Z,19.75
2019-01-17T10:45:37.389Z,19.75
2019-01-17T10:46:36.456Z,19.75
2019-01-17T10:47:36.994Z,19.75
2019-01-17T10:48:36.804Z,19.75
2019-01-17T10:49:36.504Z,19.75
2019-01-17T10:50:36.501Z,19.75
2019-01-17T10:51:36.747Z,19.75
2019-01-17T10:52:36.514Z,19.75
2019-01-17T10:53:36.905Z,19.75
2019-01-17T10:54:36.726Z,19.75
2019-01-17T10:55:36.652Z,19.75
2019-01-17T10:56:41.843Z,19.75
2019-01-17T10:57:37.294Z,19.75
2019-01-17T10:58:36.400Z,19.75
2019-01-17T10:59:36.975Z,19.75
2019-01-17T11:00:36.773Z,19.75
2019-01-17T11:01:36.528Z,19.75
2019-01-17T11:02:36.264Z,19.75
2019-01-17T11:03:36.628Z,19.75
2019-01-17T11:04:36.807Z,19.75
2019-01-17T11:05:36.667Z,19.75
2019-01-17T11:06:36.523Z,19.75
2019-01-17T11:07:36.566Z,19.75
2019-01-17T11:08:36.960Z,19.75
2019-01-17T11:09:36.479Z,19.75
2019-01-17T11:10:36.358Z,19.75
2019-01-17T11:11:36.730Z,19.75
2019-01-17T11:12:36.767Z,19.75
2019-01-17T11:13:38.325Z,19.75
2019-01-17T11:14:36.647Z,19.75
2019-01-17T11:15:36.460Z,19.75
2019-01-17T11:16:36.478Z,19.75
2019-01-17T11:17:36.868Z,19.75
2019-01-17T11:18:36.646Z,19.75
2019-01-17T11:19:36.324Z,19.75
2019-01-17T11:20:36.815Z,19.75
2019-01-17T11:21:37.176Z,19.75
2019-01-17T11:22:36.939Z,19.75
2019-01-17T11:23:36.762Z,19.75
2019-01-17T11:24:36.530Z,19.75
2019-01-17T11:25:36.408Z,19.75
2019-01-17T11:26:36.616Z,19.75
2019-01-17T11:27:36.416Z,19.75
2019-01-17T11:28:36.751Z,19.75
2019-01-17T11:29:37.396Z,19.75
2019-01-17T11:30:36.705Z,19.75
2019-01-17T11:31:36.630Z,19.75
2019-01-17T11:32:36.250Z,19.75
2019-01-17T11:33:36.633Z,19.75
2019-01-17T11:35:36.462Z,19.75
2019-01-17T11:36:36.313Z,19.75
2019-01-17T11:37:37.070Z,19.75
2019-01-17T11:38:36.499Z,19.75
2019-01-17T11:39:36.847Z,19.75
2019-01-17T11:40:36.875Z,19.75
2019-01-17T11:41:36.733Z,19.75
2019-01-17T11:42:36.934Z,19.75
2019-01-17T11:43:36.770Z,19.75
2019-01-17T11:44:36.279Z,19.75
2019-01-17T11:45:36.558Z,19.75
2019-01-17T11:46:36.826Z,19.75
2019-01-17T11:47:36.326Z,19.75
2019-01-17T11:48:37.098Z,19.75
2019-01-17T11:49:36.351Z,19.75
2019-01-17T11:50:36.844Z,19.75
2019-01-17T11:51:36.437Z,20
2019-01-17T11:52:36.304Z,20
2019-01-17T11:53:36.432Z,20
2019-01-17T11:54:36.879Z,20
2019-01-17T11:55:36.446Z,20
2019-01-17T11:56:41.270Z,20
2019-01-17T11:57:36.759Z,20
2019-01-17T11:58:36.299Z,20
2019-01-17T11:59:36.469Z,20
2019-01-17T12:00:37.068Z,20
2019-01-17T12:01:36.253Z,20
2019-01-17T12:02:39.882Z,20
2019-01-17T12:03:36.854Z,20
2019-01-17T12:04:36.322Z,20
2019-01-17T12:05:36.899Z,20
2019-01-17T12:06:36.768Z,20
2019-01-17T12:07:36.297Z,20
2019-01-17T12:08:36.759Z,20
2019-01-17T12:09:38.347Z,20
2019-01-17T12:10:36.446Z,20
2019-01-17T12:11:36.473Z,20
2019-01-17T12:12:36.502Z,20
2019-01-17T12:13:36.682Z,20
2019-01-17T12:14:36.833Z,20
2019-01-17T12:15:36.364Z,20
2019-01-17T12:16:36.788Z,20
2019-01-17T12:17:36.793Z,20
2019-01-17T12:18:36.850Z,20
2019-01-17T12:19:36.503Z,20
2019-01-17T12:20:37.125Z,20
2019-01-17T12:21:37.089Z,20
2019-01-17T12:22:36.889Z,20
2019-01-17T12:23:36.291Z,20
2019-01-17T12:24:37.094Z,20
2019-01-17T12:25:36.674Z,20
2019-01-17T12:26:36.368Z,20
2019-01-17T12:27:42.923Z,20
2019-01-17T12:28:36.620Z,20
2019-01-17T12:29:36.470Z,20
2019-01-17T12:30:36.643Z,20
2019-01-17T12:31:36.549Z,20
2019-01-17T12:32:36.839Z,20
2019-01-17T12:33:36.446Z,20
2019-01-17T12:34:36.594Z,20
2019-01-17T12:35:36.648Z,20
2019-01-17T12:36:36.417Z,20
2019-01-17T12:37:36.449Z,20.25
2019-01-17T12:38:36.300Z,20.25
2019-01-17T12:39:36.339Z,20
2019-01-17T12:40:37.111Z,20
2019-01-17T12:41:36.416Z,20.25
2019-01-17T12:42:36.643Z,20.25
2019-01-17T12:43:36.617Z,20.25
2019-01-17T12:44:36.802Z,20.25
2019-01-17T12:45:36.959Z,20.25
2019-01-17T12:46:36.701Z,20.25
2019-01-17T12:47:36.435Z,20.25
2019-01-17T12:48:36.728Z,20.25
2019-01-17T12:49:36.393Z,20.25
2019-01-17T12:50:36.571Z,20.25
2019-01-17T12:51:36.767Z,20.25
2019-01-17T12:52:37.087Z,20.25
2019-01-17T12:53:36.552Z,20.25
2019-01-17T12:54:36.176Z,20.25
2019-01-17T12:55:37.332Z,20.25
2019-01-17T12:56:36.431Z,20.25
2019-01-17T12:57:36.761Z,20.25
2019-01-17T12:58:37.352Z,20.25
2019-01-17T12:59:36.826Z,20.25
2019-01-17T13:00:37.564Z,20.25
2019-01-17T13:01:36.922Z,20.25
2019-01-17T13:02:38.284Z,20.25
2019-01-17T13:03:36.696Z,20.25
2019-01-17T13:04:36.880Z,20.25
2019-01-17T13:05:36.404Z,20.25
2019-01-17T13:06:36.922Z,20.25
2019-01-17T13:07:36.695Z,20.25
2019-01-17T13:08:36.843Z,20.25
2019-01-17T13:09:37.063Z,20.25
2019-01-17T13:10:36.353Z,20.25
2019-01-17T13:11:36.363Z,20.25
2019-01-17T13:12:36.803Z,20.25
2019-01-17T13:13:36.389Z,20.25
2019-01-17T13:14:36.475Z,20.25
2019-01-17T13:15:36.870Z,20
2019-01-17T13:16:36.466Z,20.25
2019-01-17T13:17:36.320Z,20.25
2019-01-17T13:18:36.793Z,20.25
2019-01-17T13:19:36.448Z,20
2019-01-17T13:20:36.937Z,20
2019-01-17T13:21:36.462Z,20
2019-01-17T13:22:36.391Z,20
2019-01-17T13:23:36.396Z,20
2019-01-17T13:24:36.307Z,20
2019-01-17T13:25:36.414Z,20